createdAt,value
2023-01-12T05:13:16.193Z,10.18
2023-01-12T05:15:44.157Z,11.27
2023-01-12T05:18:11.602Z,7.37
2023-01-12T05:20:39.032Z,7.80
2023-01-12T05:23:06.416Z,9.13
2023-01-12T05:25:33.838Z,8.70
2023-01-12T05:28:01.324Z,10.20
2023-01-12T05:30:31.734Z,9.40
2023-01-12T05:32:59.599Z,11.65
2023-01-12T05:35:27.069Z,9.37
2023-01-12T05:37:57.372Z,20.95
2023-01-12T05:40:25.009Z,20.10
2023-01-12T05:43:11.366Z,7.20
2023-01-12T05:45:38.811Z,8.35
2023-01-12T05:48:06.596Z,6.60
2023-01-12T05:50:34.084Z,6.20
2023-01-12T05:53:10.773Z,8.23
2023-01-12T05:55:38.465Z,8.37
2023-01-12T05:58:05.863Z,7.80
2023-01-12T06:00:33.284Z,8.10
2023-01-12T06:03:03.170Z,9.73
2023-01-12T06:05:30.574Z,6.70
2023-01-12T06:07:58.596Z,6.70
2023-01-12T06:10:26.179Z,8.13
2023-01-12T06:13:12.139Z,7.17
2023-01-12T06:15:40.211Z,7.33
2023-01-12T06:18:07.693Z,6.37
2023-01-12T06:20:35.480Z,5.80
2023-01-12T06:23:05.189Z,10.43
2023-01-12T06:25:32.782Z,9.58
2023-01-12T06:28:00.171Z,9.68
2023-01-12T06:30:27.737Z,9.83
2023-01-12T06:32:55.124Z,7.53
2023-01-12T06:35:22.479Z,10.80
2023-01-12T06:37:49.959Z,10.13
2023-01-12T06:40:17.462Z,8.00
2023-01-12T06:42:44.869Z,7.85
2023-01-12T06:45:12.613Z,8.23
2023-01-12T06:47:50.822Z,8.93
2023-01-12T06:50:18.677Z,10.10
2023-01-12T06:52:46.083Z,21.80
2023-01-12T06:55:13.565Z,10.03
2023-01-12T06:57:41.172Z,12.30
2023-01-12T07:00:09.647Z,8.43
2023-01-12T07:02:37.075Z,9.15
2023-01-12T07:05:05.383Z,10.28
2023-01-12T07:07:32.827Z,13.10
2023-01-12T07:10:00.259Z,13.22
2023-01-12T12:41:40.216Z,11.33
2023-01-12T12:44:38.984Z,8.95
2023-01-12T13:00:51.568Z,38.02
2023-01-12T13:03:41.337Z,12.85
2023-01-12T13:06:34.428Z,18.70
2023-01-12T13:09:17.163Z,14.45
2023-01-12T13:11:59.058Z,17.20
2023-01-12T13:14:34.186Z,17.63
2023-01-12T13:17:02.695Z,16.43
2023-01-12T13:19:39.195Z,10.13
2023-01-12T13:22:28.668Z,10.90
2023-01-12T13:25:01.062Z,14.98
2023-01-12T13:27:47.670Z,17.20
2023-01-12T13:30:30.634Z,33.40
2023-01-12T13:33:16.240Z,28.20
2023-01-12T13:35:47.100Z,21.37
2023-01-12T13:38:50.395Z,17.15
2023-01-12T13:41:50.382Z,17.32
2023-01-12T13:44:35.222Z,14.80
2023-01-12T13:47:11.463Z,16.95
2023-01-12T13:49:54.428Z,32.17
2023-01-12T13:52:34.089Z,23.38
2023-01-12T13:55:02.239Z,20.75
2023-01-12T13:57:31.442Z,12.88
2023-01-12T14:00:11.275Z,12.70
2023-01-12T14:02:42.193Z,13.83
2023-01-12T14:05:37.770Z,17.50
2023-01-12T14:09:06.451Z,9.25
2023-01-12T14:12:13.487Z,14.30
2023-01-12T14:15:18.078Z,13.13
2023-01-12T14:17:58.019Z,15.80
2023-01-12T14:20:28.008Z,13.60
2023-01-12T14:23:20.011Z,10.98
2023-01-12T14:26:07.213Z,15.25
2023-01-12T14:28:35.414Z,14.85
2023-01-12T14:31:04.118Z,12.50
2023-01-12T14:33:36.215Z,20.05
2023-01-12T14:36:13.168Z,14.03
2023-01-12T14:38:42.051Z,13.00
2023-01-12T14:41:35.574Z,12.60
2023-01-12T14:44:22.623Z,9.60
2023-01-12T14:46:52.919Z,6.70
2023-01-12T14:49:30.473Z,10.38
2023-01-12T14:52:17.946Z,11.10
2023-01-12T14:54:45.355Z,8.67
2023-01-12T14:57:35.154Z,6.90
2023-01-12T15:00:03.535Z,8.48
2023-01-12T15:02:35.559Z,7.90
2023-01-12T15:05:34.700Z,6.65
2023-01-12T15:08:03.109Z,9.40
2023-01-12T15:13:33.419Z,7.25
2023-01-12T15:16:20.487Z,10.30
2023-01-12T15:19:06.888Z,7.28
2023-01-12T15:21:53.613Z,7.97
2023-01-12T15:24:49.967Z,9.98
2023-01-12T15:27:19.708Z,9.38
2023-01-12T15:29:47.337Z,7.20
2023-01-12T15:32:38.081Z,11.43
2023-01-12T15:35:24.183Z,11.70
2023-01-12T15:37:58.176Z,10.93
2023-01-12T15:40:30.031Z,21.15
2023-01-12T15:42:59.359Z,13.60
2023-01-12T15:45:37.307Z,10.50
2023-01-12T15:48:05.992Z,12.30
2023-01-12T15:50:34.025Z,16.50
2023-01-12T15:53:06.356Z,25.72
2023-01-12T15:55:39.046Z,29.50
2023-01-12T15:58:06.897Z,27.48
2023-01-12T16:00:34.559Z,28.25
2023-01-12T16:03:02.006Z,38.42
2023-01-12T16:05:29.750Z,36.13
2023-01-12T22:16:25.914Z,22.82
2023-01-12T22:18:53.604Z,28.83
2023-01-12T22:21:21.984Z,21.82
2023-01-12T22:26:17.696Z,24.67
2023-01-12T22:28:47.857Z,22.02
2023-01-12T22:31:18.592Z,19.37
2023-01-12T22:34:04.188Z,18.40
2023-01-12T22:36:34.911Z,19.35
2023-01-12T22:39:02.931Z,16.32
2023-01-12T22:41:30.437Z,16.33
2023-01-12T22:43:57.935Z,14.37
2023-01-12T22:46:26.985Z,15.50
2023-01-12T22:48:57.276Z,14.23
2023-01-12T22:51:26.060Z,12.98
2023-01-12T22:53:54.365Z,13.15
2023-01-12T22:56:21.837Z,11.55
2023-01-12T22:58:51.688Z,8.43
2023-01-12T23:01:20.207Z,11.65
2023-01-12T23:03:51.107Z,12.55
2023-01-12T23:06:18.708Z,13.50
2023-01-12T23:08:46.557Z,11.70
2023-01-12T23:11:19.089Z,11.43
2023-01-12T23:13:46.974Z,11.38
2023-01-12T23:16:16.378Z,11.95
2023-01-12T23:18:45.296Z,11.88
2023-01-12T23:21:16.228Z,11.77
2023-01-12T23:23:46.520Z,10.88
2023-01-12T23:26:17.228Z,12.65
2023-01-12T23:28:50.427Z,14.95
2023-01-12T23:31:24.663Z,16.15
2023-01-12T23:33:53.045Z,14.87
2023-01-12T23:36:26.921Z,14.13
2023-01-12T23:38:56.158Z,12.67
2023-01-12T23:41:26.775Z,13.68
2023-01-12T23:43:59.634Z,15.43
2023-01-12T23:46:29.070Z,14.60
2023-01-12T23:48:57.824Z,14.85
2023-01-12T23:51:27.008Z,11.68
2023-01-12T23:53:59.728Z,11.48
2023-01-12T23:56:31.205Z,12.93
2023-01-12T23:58:58.827Z,11.63
